sensor_id;sensor_type;location;lat;lon;timestamp;P1;durP1;ratioP1;P2;durP2;ratioP2
18716;SDS011;9487;50.892;6.906;2023-11-18T00:01:01;29.30;;;22.20;;
18716;SDS011;9487;50.892;6.906;2023-11-18T00:03:28;31.80;;;22.03;;
18716;SDS011;9487;50.892;6.906;2023-11-18T00:05:55;30.00;;;22.20;;
18716;SDS011;9487;50.892;6.906;2023-11-18T00:08:23;31.13;;;20.50;;
18716;SDS011;9487;50.892;6.906;2023-11-18T00:10:51;29.17;;;20.23;;
18716;SDS011;9487;50.892;6.906;2023-11-18T00:13:18;30.77;;;22.40;;
18716;SDS011;9487;50.892;6.906;2023-11-18T00:15:45;38.77;;;22.27;;
18716;SDS011;9487;50.892;6.906;2023-11-18T00:18:13;31.73;;;21.70;;
18716;SDS011;9487;50.892;6.906;2023-11-18T00:20:40;31.83;;;21.17;;
18716;SDS011;9487;50.892;6.906;2023-11-18T00:23:08;32.13;;;21.80;;
18716;SDS011;9487;50.892;6.906;2023-11-18T00:25:36;41.30;;;23.67;;
18716;SDS011;9487;50.892;6.906;2023-11-18T00:28:05;42.27;;;23.03;;
18716;SDS011;9487;50.892;6.906;2023-11-18T00:30:33;36.30;;;22.97;;
18716;SDS011;9487;50.892;6.906;2023-11-18T00:33:02;35.90;;;22.80;;
18716;SDS011;9487;50.892;6.906;2023-11-18T00:35:29;40.80;;;23.77;;
18716;SDS011;9487;50.892;6.906;2023-11-18T00:37:59;39.07;;;22.73;;
18716;SDS011;9487;50.892;6.906;2023-11-18T00:40:26;40.37;;;22.53;;
18716;SDS011;9487;50.892;6.906;2023-11-18T00:42:56;40.67;;;22.97;;
18716;SDS011;9487;50.892;6.906;2023-11-18T00:45:25;39.43;;;23.00;;
18716;SDS011;9487;50.892;6.906;2023-11-18T00:47:56;36.93;;;22.27;;
18716;SDS011;9487;50.892;6.906;2023-11-18T00:50:25;37.77;;;22.17;;
18716;SDS011;9487;50.892;6.906;2023-11-18T00:52:52;35.40;;;21.67;;
18716;SDS011;9487;50.892;6.906;2023-11-18T00:55:21;38.40;;;22.57;;
18716;SDS011;9487;50.892;6.906;2023-11-18T00:57:48;37.43;;;21.97;;
18716;SDS011;9487;50.892;6.906;2023-11-18T01:00:16;36.20;;;22.73;;
18716;SDS011;9487;50.892;6.906;2023-11-18T01:02:47;42.83;;;24.50;;
18716;SDS011;9487;50.892;6.906;2023-11-18T01:05:14;43.90;;;25.10;;
18716;SDS011;9487;50.892;6.906;2023-11-18T01:07:43;44.47;;;24.63;;
18716;SDS011;9487;50.892;6.906;2023-11-18T01:10:10;45.70;;;24.50;;
18716;SDS011;9487;50.892;6.906;2023-11-18T01:12:36;45.23;;;25.00;;
18716;SDS011;9487;50.892;6.906;2023-11-18T01:15:05;47.23;;;25.00;;
18716;SDS011;9487;50.892;6.906;2023-11-18T01:17:36;44.83;;;24.47;;
18716;SDS011;9487;50.892;6.906;2023-11-18T01:20:06;49.07;;;25.60;;
18716;SDS011;9487;50.892;6.906;2023-11-18T01:22:35;49.40;;;26.00;;
18716;SDS011;9487;50.892;6.906;2023-11-18T01:25:03;48.83;;;26.30;;
18716;SDS011;9487;50.892;6.906;2023-11-18T01:27:33;47.77;;;27.43;;
18716;SDS011;9487;50.892;6.906;2023-11-18T01:30:00;44.67;;;26.30;;
18716;SDS011;9487;50.892;6.906;2023-11-18T01:32:29;46.73;;;27.33;;
18716;SDS011;9487;50.892;6.906;2023-11-18T01:34:58;45.33;;;26.07;;
18716;SDS011;9487;50.892;6.906;2023-11-18T01:37:25;44.60;;;26.40;;
18716;SDS011;9487;50.892;6.906;2023-11-18T01:39:52;49.33;;;27.17;;
18716;SDS011;9487;50.892;6.906;2023-11-18T01:42:19;48.80;;;26.97;;
18716;SDS011;9487;50.892;6.906;2023-11-18T01:44:46;52.23;;;26.57;;
18716;SDS011;9487;50.892;6.906;2023-11-18T01:47:13;48.10;;;26.87;;
18716;SDS011;9487;50.892;6.906;2023-11-18T01:49:41;52.20;;;28.23;;
18716;SDS011;9487;50.892;6.906;2023-11-18T01:52:10;52.40;;;28.37;;
18716;SDS011;9487;50.892;6.906;2023-11-18T01:54:38;51.80;;;28.07;;
18716;SDS011;9487;50.892;6.906;2023-11-18T01:57:08;50.90;;;28.43;;
18716;SDS011;9487;50.892;6.906;2023-11-18T01:59:36;47.40;;;27.00;;
18716;SDS011;9487;50.892;6.906;2023-11-18T02:02:05;48.57;;;27.20;;
18716;SDS011;9487;50.892;6.906;2023-11-18T02:04:36;46.60;;;28.20;;
18716;SDS011;9487;50.892;6.906;2023-11-18T02:07:03;47.03;;;26.60;;
18716;SDS011;9487;50.892;6.906;2023-11-18T02:09:35;49.30;;;27.20;;
18716;SDS011;9487;50.892;6.906;2023-11-18T02:12:05;48.70;;;26.67;;
18716;SDS011;9487;50.892;6.906;2023-11-18T02:14:42;46.07;;;25.17;;
18716;SDS011;9487;50.892;6.906;2023-11-18T02:17:12;45.10;;;25.53;;
18716;SDS011;9487;50.892;6.906;2023-11-18T02:19:40;45.00;;;26.23;;
18716;SDS011;9487;50.892;6.906;2023-11-18T02:22:09;45.60;;;26.43;;
18716;SDS011;9487;50.892;6.906;2023-11-18T02:24:40;45.40;;;27.03;;
18716;SDS011;9487;50.892;6.906;2023-11-18T02:27:08;46.23;;;27.33;;
18716;SDS011;9487;50.892;6.906;2023-11-18T02:29:37;41.30;;;25.70;;
18716;SDS011;9487;50.892;6.906;2023-11-18T02:32:07;39.77;;;24.40;;
18716;SDS011;9487;50.892;6.906;2023-11-18T02:34:40;37.70;;;24.20;;
18716;SDS011;9487;50.892;6.906;2023-11-18T02:37:13;36.37;;;22.93;;
18716;SDS011;9487;50.892;6.906;2023-11-18T02:39:42;39.40;;;23.67;;
18716;SDS011;9487;50.892;6.906;2023-11-18T02:42:14;39.47;;;24.50;;
18716;SDS011;9487;50.892;6.906;2023-11-18T02:44:41;38.40;;;24.50;;
18716;SDS011;9487;50.892;6.906;2023-11-18T02:47:11;37.90;;;23.67;;
18716;SDS011;9487;50.892;6.906;2023-11-18T02:49:38;38.30;;;23.43;;
18716;SDS011;9487;50.892;6.906;2023-11-18T02:52:06;34.60;;;22.40;;
18716;SDS011;9487;50.892;6.906;2023-11-18T02:54:35;34.17;;;22.97;;
18716;SDS011;9487;50.892;6.906;2023-11-18T02:57:02;36.20;;;22.70;;
18716;SDS011;9487;50.892;6.906;2023-11-18T02:59:30;36.60;;;22.73;;
18716;SDS011;9487;50.892;6.906;2023-11-18T03:01:58;37.47;;;23.93;;
18716;SDS011;9487;50.892;6.906;2023-11-18T03:04:26;39.13;;;23.73;;
18716;SDS011;9487;50.892;6.906;2023-11-18T03:06:53;34.60;;;22.90;;
18716;SDS011;9487;50.892;6.906;2023-11-18T03:09:20;34.37;;;22.63;;
18716;SDS011;9487;50.892;6.906;2023-11-18T03:11:47;34.97;;;22.90;;
18716;SDS011;9487;50.892;6.906;2023-11-18T03:14:16;35.53;;;22.07;;
18716;SDS011;9487;50.892;6.906;2023-11-18T03:16:45;34.50;;;21.73;;
18716;SDS011;9487;50.892;6.906;2023-11-18T03:19:14;33.17;;;20.57;;
18716;SDS011;9487;50.892;6.906;2023-11-18T03:21:40;30.83;;;21.53;;
18716;SDS011;9487;50.892;6.906;2023-11-18T03:24:08;33.60;;;22.23;;
18716;SDS011;9487;50.892;6.906;2023-11-18T03:26:35;32.77;;;21.27;;
18716;SDS011;9487;50.892;6.906;2023-11-18T03:29:02;32.67;;;20.20;;
18716;SDS011;9487;50.892;6.906;2023-11-18T03:31:29;33.80;;;21.27;;
18716;SDS011;9487;50.892;6.906;2023-11-18T03:33:57;30.10;;;20.93;;
18716;SDS011;9487;50.892;6.906;2023-11-18T03:36:24;32.00;;;21.07;;
18716;SDS011;9487;50.892;6.906;2023-11-18T03:38:53;31.37;;;21.97;;
18716;SDS011;9487;50.892;6.906;2023-11-18T03:41:22;31.10;;;20.87;;
18716;SDS011;9487;50.892;6.906;2023-11-18T03:43:49;30.43;;;21.03;;
18716;SDS011;9487;50.892;6.906;2023-11-18T03:46:17;30.20;;;21.10;;
18716;SDS011;9487;50.892;6.906;2023-11-18T03:48:44;33.30;;;20.97;;
18716;SDS011;9487;50.892;6.906;2023-11-18T03:51:13;30.50;;;21.53;;
18716;SDS011;9487;50.892;6.906;2023-11-18T03:53:42;28.33;;;19.93;;
18716;SDS011;9487;50.892;6.906;2023-11-18T03:56:11;36.67;;;22.60;;
18716;SDS011;9487;50.892;6.906;2023-11-18T03:58:43;33.03;;;22.33;;
18716;SDS011;9487;50.892;6.906;2023-11-18T04:01:18;32.90;;;22.10;;
18716;SDS011;9487;50.892;6.906;2023-11-18T04:03:48;35.03;;;23.40;;
18716;SDS011;9487;50.892;6.906;2023-11-18T04:06:17;32.77;;;22.17;;
18716;SDS011;9487;50.892;6.906;2023-11-18T04:08:44;32.40;;;21.60;;
18716;SDS011;9487;50.892;6.906;2023-11-18T04:11:11;31.30;;;21.57;;
18716;SDS011;9487;50.892;6.906;2023-11-18T04:13:39;31.07;;;21.93;;
18716;SDS011;9487;50.892;6.906;2023-11-18T04:16:10;31.73;;;20.87;;
18716;SDS011;9487;50.892;6.906;2023-11-18T04:18:38;28.40;;;20.83;;
18716;SDS011;9487;50.892;6.906;2023-11-18T04:21:06;33.67;;;22.43;;
18716;SDS011;9487;50.892;6.906;2023-11-18T04:23:35;30.47;;;21.30;;
18716;SDS011;9487;50.892;6.906;2023-11-18T04:26:03;31.67;;;21.33;;
18716;SDS011;9487;50.892;6.906;2023-11-18T04:28:30;31.47;;;22.43;;
18716;SDS011;9487;50.892;6.906;2023-11-18T04:30:58;30.57;;;21.80;;
18716;SDS011;9487;50.892;6.906;2023-11-18T04:33:25;29.80;;;21.17;;
18716;SDS011;9487;50.892;6.906;2023-11-18T04:35:54;32.93;;;21.93;;
18716;SDS011;9487;50.892;6.906;2023-11-18T04:38:23;32.53;;;22.07;;
18716;SDS011;9487;50.892;6.906;2023-11-18T04:40:52;32.53;;;21.70;;
18716;SDS011;9487;50.892;6.906;2023-11-18T04:43:19;32.70;;;22.07;;
18716;SDS011;9487;50.892;6.906;2023-11-18T04:45:47;32.43;;;21.87;;
18716;SDS011;9487;50.892;6.906;2023-11-18T04:48:14;28.53;;;20.17;;
18716;SDS011;9487;50.892;6.906;2023-11-18T04:50:41;32.40;;;21.20;;
18716;SDS011;9487;50.892;6.906;2023-11-18T04:53:08;31.23;;;21.50;;
18716;SDS011;9487;50.892;6.906;2023-11-18T04:55:36;32.03;;;21.33;;
18716;SDS011;9487;50.892;6.906;2023-11-18T04:58:04;35.13;;;23.17;;
18716;SDS011;9487;50.892;6.906;2023-11-18T05:00:31;33.40;;;21.77;;
18716;SDS011;9487;50.892;6.906;2023-11-18T05:02:58;31.80;;;21.33;;
18716;SDS011;9487;50.892;6.906;2023-11-18T05:05:25;32.17;;;22.67;;
18716;SDS011;9487;50.892;6.906;2023-11-18T05:07:51;32.33;;;21.50;;
18716;SDS011;9487;50.892;6.906;2023-11-18T05:10:19;31.80;;;21.43;;
18716;SDS011;9487;50.892;6.906;2023-11-18T05:12:46;34.73;;;22.57;;
18716;SDS011;9487;50.892;6.906;2023-11-18T05:15:22;36.70;;;22.70;;
18716;SDS011;9487;50.892;6.906;2023-11-18T05:17:50;32.70;;;21.37;;
18716;SDS011;9487;50.892;6.906;2023-11-18T05:20:17;32.20;;;21.90;;
18716;SDS011;9487;50.892;6.906;2023-11-18T05:22:44;35.07;;;22.87;;
18716;SDS011;9487;50.892;6.906;2023-11-18T05:25:12;35.20;;;23.63;;
18716;SDS011;9487;50.892;6.906;2023-11-18T05:27:39;35.60;;;22.97;;
18716;SDS011;9487;50.892;6.906;2023-11-18T05:30:06;33.50;;;22.70;;
18716;SDS011;9487;50.892;6.906;2023-11-18T05:32:35;32.37;;;22.47;;
18716;SDS011;9487;50.892;6.906;2023-11-18T05:35:03;32.27;;;22.50;;
18716;SDS011;9487;50.892;6.906;2023-11-18T05:37:31;30.60;;;21.50;;
18716;SDS011;9487;50.892;6.906;2023-11-18T05:40:00;33.30;;;22.40;;
18716;SDS011;9487;50.892;6.906;2023-11-18T05:42:31;32.77;;;22.60;;
18716;SDS011;9487;50.892;6.906;2023-11-18T05:44:59;36.00;;;23.10;;
18716;SDS011;9487;50.892;6.906;2023-11-18T05:47:26;33.50;;;22.60;;
18716;SDS011;9487;50.892;6.906;2023-11-18T05:49:54;31.80;;;22.00;;
18716;SDS011;9487;50.892;6.906;2023-11-18T05:52:22;34.13;;;23.47;;
18716;SDS011;9487;50.892;6.906;2023-11-18T05:54:49;32.33;;;21.40;;
18716;SDS011;9487;50.892;6.906;2023-11-18T05:57:17;31.20;;;21.47;;
18716;SDS011;9487;50.892;6.906;2023-11-18T05:59:45;33.37;;;21.43;;
18716;SDS011;9487;50.892;6.906;2023-11-18T06:02:13;34.40;;;23.73;;
18716;SDS011;9487;50.892;6.906;2023-11-18T06:04:43;31.63;;;22.03;;
18716;SDS011;9487;50.892;6.906;2023-11-18T06:07:11;32.07;;;22.03;;
18716;SDS011;9487;50.892;6.906;2023-11-18T06:09:38;31.17;;;21.13;;
18716;SDS011;9487;50.892;6.906;2023-11-18T06:12:07;31.47;;;21.17;;
18716;SDS011;9487;50.892;6.906;2023-11-18T06:14:35;30.33;;;21.33;;
18716;SDS011;9487;50.892;6.906;2023-11-18T06:17:03;28.90;;;20.83;;
18716;SDS011;9487;50.892;6.906;2023-11-18T06:19:32;33.03;;;21.77;;
18716;SDS011;9487;50.892;6.906;2023-11-18T06:21:59;30.33;;;20.63;;
18716;SDS011;9487;50.892;6.906;2023-11-18T06:24:28;28.07;;;20.17;;
18716;SDS011;9487;50.892;6.906;2023-11-18T06:26:57;31.37;;;20.50;;
18716;SDS011;9487;50.892;6.906;2023-11-18T06:29:25;28.60;;;20.33;;
18716;SDS011;9487;50.892;6.906;2023-11-18T06:31:54;26.83;;;19.97;;
18716;SDS011;9487;50.892;6.906;2023-11-18T06:34:21;25.27;;;18.10;;
18716;SDS011;9487;50.892;6.906;2023-11-18T06:36:48;26.17;;;18.70;;
18716;SDS011;9487;50.892;6.906;2023-11-18T06:39:15;28.17;;;19.87;;
18716;SDS011;9487;50.892;6.906;2023-11-18T06:41:46;23.13;;;18.17;;
18716;SDS011;9487;50.892;6.906;2023-11-18T06:44:16;26.33;;;19.00;;
18716;SDS011;9487;50.892;6.906;2023-11-18T06:46:48;26.63;;;18.57;;
18716;SDS011;9487;50.892;6.906;2023-11-18T06:49:16;25.97;;;17.90;;
18716;SDS011;9487;50.892;6.906;2023-11-18T06:51:43;24.67;;;18.83;;
18716;SDS011;9487;50.892;6.906;2023-11-18T06:54:10;24.63;;;18.17;;
18716;SDS011;9487;50.892;6.906;2023-11-18T06:56:39;27.77;;;18.37;;
18716;SDS011;9487;50.892;6.906;2023-11-18T06:59:09;24.97;;;18.53;;
18716;SDS011;9487;50.892;6.906;2023-11-18T07:01:37;25.37;;;19.00;;
18716;SDS011;9487;50.892;6.906;2023-11-18T07:04:05;26.23;;;19.13;;
18716;SDS011;9487;50.892;6.906;2023-11-18T07:06:33;28.47;;;19.53;;
18716;SDS011;9487;50.892;6.906;2023-11-18T07:09:03;25.83;;;19.00;;
18716;SDS011;9487;50.892;6.906;2023-11-18T07:11:37;26.13;;;19.57;;
18716;SDS011;9487;50.892;6.906;2023-11-18T07:14:04;25.80;;;18.87;;
18716;SDS011;9487;50.892;6.906;2023-11-18T07:16:35;25.67;;;18.77;;
18716;SDS011;9487;50.892;6.906;2023-11-18T07:19:04;26.03;;;17.80;;
18716;SDS011;9487;50.892;6.906;2023-11-18T07:21:31;24.43;;;18.67;;
18716;SDS011;9487;50.892;6.906;2023-11-18T07:23:58;22.83;;;17.33;;
18716;SDS011;9487;50.892;6.906;2023-11-18T07:26:27;25.00;;;17.30;;
18716;SDS011;9487;50.892;6.906;2023-11-18T07:28:54;25.23;;;18.37;;
18716;SDS011;9487;50.892;6.906;2023-11-18T07:31:21;25.37;;;17.47;;
18716;SDS011;9487;50.892;6.906;2023-11-18T07:33:49;24.57;;;18.03;;
18716;SDS011;9487;50.892;6.906;2023-11-18T07:36:17;21.70;;;16.30;;
18716;SDS011;9487;50.892;6.906;2023-11-18T07:38:45;25.63;;;18.43;;
18716;SDS011;9487;50.892;6.906;2023-11-18T07:41:12;24.50;;;17.47;;
18716;SDS011;9487;50.892;6.906;2023-11-18T07:43:49;26.63;;;18.13;;
18716;SDS011;9487;50.892;6.906;2023-11-18T07:46:17;25.10;;;18.13;;
18716;SDS011;9487;50.892;6.906;2023-11-18T07:48:47;23.27;;;16.70;;
18716;SDS011;9487;50.892;6.906;2023-11-18T07:51:15;21.73;;;15.77;;
18716;SDS011;9487;50.892;6.906;2023-11-18T07:53:46;21.57;;;15.63;;
18716;SDS011;9487;50.892;6.906;2023-11-18T07:56:14;20.27;;;15.70;;
18716;SDS011;9487;50.892;6.906;2023-11-18T07:58:41;23.60;;;16.00;;
18716;SDS011;9487;50.892;6.906;2023-11-18T08:01:10;21.73;;;15.87;;
18716;SDS011;9487;50.892;6.906;2023-11-18T08:03:37;22.47;;;17.20;;
18716;SDS011;9487;50.892;6.906;2023-11-18T08:06:06;21.87;;;16.23;;
18716;SDS011;9487;50.892;6.906;2023-11-18T08:08:35;21.20;;;16.27;;
18716;SDS011;9487;50.892;6.906;2023-11-18T08:11:03;19.83;;;15.77;;
18716;SDS011;9487;50.892;6.906;2023-11-18T08:13:30;22.37;;;16.53;;
18716;SDS011;9487;50.892;6.906;2023-11-18T08:15:57;18.33;;;15.03;;
18716;SDS011;9487;50.892;6.906;2023-11-18T08:18:24;20.03;;;15.07;;
18716;SDS011;9487;50.892;6.906;2023-11-18T08:20:52;22.87;;;16.93;;
18716;SDS011;9487;50.892;6.906;2023-11-18T08:23:20;22.30;;;16.90;;
18716;SDS011;9487;50.892;6.906;2023-11-18T08:25:48;18.67;;;15.33;;
18716;SDS011;9487;50.892;6.906;2023-11-18T08:28:16;21.33;;;15.57;;
18716;SDS011;9487;50.892;6.906;2023-11-18T08:30:43;20.90;;;15.23;;
18716;SDS011;9487;50.892;6.906;2023-11-18T08:33:09;21.37;;;16.00;;
18716;SDS011;9487;50.892;6.906;2023-11-18T08:35:36;19.10;;;15.47;;
18716;SDS011;9487;50.892;6.906;2023-11-18T08:38:05;20.47;;;15.37;;
18716;SDS011;9487;50.892;6.906;2023-11-18T08:40:32;21.10;;;15.73;;
18716;SDS011;9487;50.892;6.906;2023-11-18T08:43:00;20.40;;;15.73;;
18716;SDS011;9487;50.892;6.906;2023-11-18T08:45:32;19.80;;;16.07;;
18716;SDS011;9487;50.892;6.906;2023-11-18T08:48:00;20.53;;;15.87;;
18716;SDS011;9487;50.892;6.906;2023-11-18T08:50:32;21.97;;;15.70;;
18716;SDS011;9487;50.892;6.906;2023-11-18T08:52:59;19.07;;;15.10;;
18716;SDS011;9487;50.892;6.906;2023-11-18T08:55:30;21.07;;;16.27;;
18716;SDS011;9487;50.892;6.906;2023-11-18T08:58:17;20.70;;;15.77;;
18716;SDS011;9487;50.892;6.906;2023-11-18T09:00:48;23.15;;;19.95;;
18716;SDS011;9487;50.892;6.906;2023-11-18T09:03:18;20.43;;;16.40;;
18716;SDS011;9487;50.892;6.906;2023-11-18T09:05:51;19.70;;;15.63;;
18716;SDS011;9487;50.892;6.906;2023-11-18T09:08:25;20.70;;;16.47;;
18716;SDS011;9487;50.892;6.906;2023-11-18T09:10:52;19.33;;;15.30;;
18716;SDS011;9487;50.892;6.906;2023-11-18T09:13:22;18.13;;;14.80;;
18716;SDS011;9487;50.892;6.906;2023-11-18T09:15:53;19.73;;;15.43;;
18716;SDS011;9487;50.892;6.906;2023-11-18T09:18:22;17.70;;;12.67;;
18716;SDS011;9487;50.892;6.906;2023-11-18T09:20:50;22.00;;;15.77;;
18716;SDS011;9487;50.892;6.906;2023-11-18T09:23:17;21.47;;;16.53;;
18716;SDS011;9487;50.892;6.906;2023-11-18T09:25:45;17.27;;;14.77;;
18716;SDS011;9487;50.892;6.906;2023-11-18T09:28:13;17.77;;;14.07;;
18716;SDS011;9487;50.892;6.906;2023-11-18T09:30:42;17.90;;;14.10;;
18716;SDS011;9487;50.892;6.906;2023-11-18T09:33:15;15.33;;;13.37;;
18716;SDS011;9487;50.892;6.906;2023-11-18T09:35:50;16.73;;;13.13;;
18716;SDS011;9487;50.892;6.906;2023-11-18T09:38:21;16.83;;;13.53;;
18716;SDS011;9487;50.892;6.906;2023-11-18T09:40:49;17.17;;;13.20;;
18716;SDS011;9487;50.892;6.906;2023-11-18T09:43:18;15.93;;;13.07;;
18716;SDS011;9487;50.892;6.906;2023-11-18T09:45:48;14.73;;;13.07;;
18716;SDS011;9487;50.892;6.906;2023-11-18T09:48:20;16.20;;;13.23;;
18716;SDS011;9487;50.892;6.906;2023-11-18T09:50:50;16.50;;;13.13;;
18716;SDS011;9487;50.892;6.906;2023-11-18T09:53:18;17.37;;;13.57;;
18716;SDS011;9487;50.892;6.906;2023-11-18T09:55:49;16.03;;;13.57;;
18716;SDS011;9487;50.892;6.906;2023-11-18T09:58:25;17.23;;;13.47;;
18716;SDS011;9487;50.892;6.906;2023-11-18T10:01:02;17.20;;;13.63;;
18716;SDS011;9487;50.892;6.906;2023-11-18T10:03:29;17.10;;;13.63;;
18716;SDS011;9487;50.892;6.906;2023-11-18T10:05:56;17.47;;;13.47;;
18716;SDS011;9487;50.892;6.906;2023-11-18T10:08:30;17.10;;;13.13;;
18716;SDS011;9487;50.892;6.906;2023-11-18T10:10:57;18.50;;;13.57;;
18716;SDS011;9487;50.892;6.906;2023-11-18T10:13:30;17.10;;;12.93;;
18716;SDS011;9487;50.892;6.906;2023-11-18T10:15:59;15.13;;;12.40;;
18716;SDS011;9487;50.892;6.906;2023-11-18T10:18:31;16.67;;;12.33;;
18716;SDS011;9487;50.892;6.906;2023-11-18T10:21:02;15.83;;;13.07;;
18716;SDS011;9487;50.892;6.906;2023-11-18T10:23:33;15.70;;;12.90;;
18716;SDS011;9487;50.892;6.906;2023-11-18T10:26:02;15.70;;;13.00;;
18716;SDS011;9487;50.892;6.906;2023-11-18T10:28:31;16.80;;;14.00;;
18716;SDS011;9487;50.892;6.906;2023-11-18T10:30:59;16.40;;;13.33;;
18716;SDS011;9487;50.892;6.906;2023-11-18T10:33:29;17.87;;;13.73;;
18716;SDS011;9487;50.892;6.906;2023-11-18T10:35:58;16.10;;;13.53;;
18716;SDS011;9487;50.892;6.906;2023-11-18T10:38:28;14.70;;;13.00;;
18716;SDS011;9487;50.892;6.906;2023-11-18T10:40:56;14.80;;;13.03;;
18716;SDS011;9487;50.892;6.906;2023-11-18T10:43:26;15.67;;;12.87;;
18716;SDS011;9487;50.892;6.906;2023-11-18T10:46:03;16.63;;;12.67;;
18716;SDS011;9487;50.892;6.906;2023-11-18T10:48:37;15.10;;;12.90;;
18716;SDS011;9487;50.892;6.906;2023-11-18T10:51:08;14.10;;;12.33;;
18716;SDS011;9487;50.892;6.906;2023-11-18T10:53:38;12.87;;;10.77;;
18716;SDS011;9487;50.892;6.906;2023-11-18T10:56:16;11.43;;;9.33;;
18716;SDS011;9487;50.892;6.906;2023-11-18T10:58:49;11.43;;;8.43;;
18716;SDS011;9487;50.892;6.906;2023-11-18T11:01:17;13.43;;;8.77;;
18716;SDS011;9487;50.892;6.906;2023-11-18T11:03:55;10.70;;;8.97;;
18716;SDS011;9487;50.892;6.906;2023-11-18T11:06:22;10.57;;;8.70;;
18716;SDS011;9487;50.892;6.906;2023-11-18T11:08:50;12.20;;;9.97;;
18716;SDS011;9487;50.892;6.906;2023-11-18T11:11:18;13.07;;;9.00;;
18716;SDS011;9487;50.892;6.906;2023-11-18T11:13:49;11.23;;;8.87;;
18716;SDS011;9487;50.892;6.906;2023-11-18T11:16:21;10.73;;;8.57;;
18716;SDS011;9487;50.892;6.906;2023-11-18T11:18:53;10.13;;;9.00;;
18716;SDS011;9487;50.892;6.906;2023-11-18T11:21:26;11.90;;;9.00;;
18716;SDS011;9487;50.892;6.906;2023-11-18T11:23:55;13.67;;;8.67;;
18716;SDS011;9487;50.892;6.906;2023-11-18T11:26:33;14.93;;;9.97;;
18716;SDS011;9487;50.892;6.906;2023-11-18T11:29:19;11.57;;;8.37;;
18716;SDS011;9487;50.892;6.906;2023-11-18T11:31:55;12.50;;;9.03;;
18716;SDS011;9487;50.892;6.906;2023-11-18T11:34:38;10.43;;;9.03;;
18716;SDS011;9487;50.892;6.906;2023-11-18T11:37:10;11.37;;;8.90;;
18716;SDS011;9487;50.892;6.906;2023-11-18T11:39:40;10.87;;;8.00;;
18716;SDS011;9487;50.892;6.906;2023-11-18T11:42:12;8.53;;;7.63;;
18716;SDS011;9487;50.892;6.906;2023-11-18T11:44:42;10.10;;;7.40;;
18716;SDS011;9487;50.892;6.906;2023-11-18T11:47:10;11.87;;;7.20;;
18716;SDS011;9487;50.892;6.906;2023-11-18T11:49:43;9.03;;;7.10;;
18716;SDS011;9487;50.892;6.906;2023-11-18T11:52:18;8.90;;;6.57;;
18716;SDS011;9487;50.892;6.906;2023-11-18T11:54:54;11.43;;;7.53;;
18716;SDS011;9487;50.892;6.906;2023-11-18T11:57:29;9.13;;;6.40;;
18716;SDS011;9487;50.892;6.906;2023-11-18T12:00:00;8.60;;;6.33;;
18716;SDS011;9487;50.892;6.906;2023-11-18T12:02:40;6.27;;;5.60;;
18716;SDS011;9487;50.892;6.906;2023-11-18T12:05:16;9.60;;;5.40;;
18716;SDS011;9487;50.892;6.906;2023-11-18T12:07:46;7.63;;;5.73;;
18716;SDS011;9487;50.892;6.906;2023-11-18T12:10:13;7.57;;;5.67;;
18716;SDS011;9487;50.892;6.906;2023-11-18T12:12:46;7.87;;;7.03;;
18716;SDS011;9487;50.892;6.906;2023-11-18T12:15:13;9.00;;;6.80;;
18716;SDS011;9487;50.892;6.906;2023-11-18T12:20:44;8.20;;;6.90;;
18716;SDS011;9487;50.892;6.906;2023-11-18T12:23:12;7.97;;;6.37;;
18716;SDS011;9487;50.892;6.906;2023-11-18T12:25:40;9.70;;;6.47;;
18716;SDS011;9487;50.892;6.906;2023-11-18T12:28:11;8.57;;;6.47;;
18716;SDS011;9487;50.892;6.906;2023-11-18T12:30:42;7.77;;;6.70;;
18716;SDS011;9487;50.892;6.906;2023-11-18T12:33:21;9.37;;;6.70;;
18716;SDS011;9487;50.892;6.906;2023-11-18T12:36:02;9.50;;;6.93;;
18716;SDS011;9487;50.892;6.906;2023-11-18T12:39:08;10.60;;;7.20;;
18716;SDS011;9487;50.892;6.906;2023-11-18T12:42:07;9.83;;;7.20;;
18716;SDS011;9487;50.892;6.906;2023-11-18T12:44:53;8.67;;;7.50;;
18716;SDS011;9487;50.892;6.906;2023-11-18T12:47:40;9.87;;;7.40;;
18716;SDS011;9487;50.892;6.906;2023-11-18T12:50:09;8.73;;;7.40;;
18716;SDS011;9487;50.892;6.906;2023-11-18T12:52:48;7.73;;;6.93;;
18716;SDS011;9487;50.892;6.906;2023-11-18T12:55:16;10.17;;;7.70;;
18716;SDS011;9487;50.892;6.906;2023-11-18T12:57:45;11.70;;;8.23;;
18716;SDS011;9487;50.892;6.906;2023-11-18T13:00:14;11.97;;;10.53;;
18716;SDS011;9487;50.892;6.906;2023-11-18T13:02:51;11.80;;;9.30;;
18716;SDS011;9487;50.892;6.906;2023-11-18T13:05:19;8.73;;;7.80;;
18716;SDS011;9487;50.892;6.906;2023-11-18T13:07:46;11.23;;;7.90;;
18716;SDS011;9487;50.892;6.906;2023-11-18T13:10:14;10.23;;;8.60;;
18716;SDS011;9487;50.892;6.906;2023-11-18T13:12:41;9.37;;;7.03;;
18716;SDS011;9487;50.892;6.906;2023-11-18T13:15:10;15.53;;;11.20;;
18716;SDS011;9487;50.892;6.906;2023-11-18T13:17:38;9.67;;;8.03;;
18716;SDS011;9487;50.892;6.906;2023-11-18T13:20:12;10.97;;;7.53;;
18716;SDS011;9487;50.892;6.906;2023-11-18T13:22:41;12.53;;;8.10;;
18716;SDS011;9487;50.892;6.906;2023-11-18T13:25:08;8.77;;;6.80;;
18716;SDS011;9487;50.892;6.906;2023-11-18T13:27:39;6.87;;;5.40;;
18716;SDS011;9487;50.892;6.906;2023-11-18T13:30:06;7.00;;;5.43;;
18716;SDS011;9487;50.892;6.906;2023-11-18T13:32:40;5.37;;;4.60;;
18716;SDS011;9487;50.892;6.906;2023-11-18T13:35:08;8.97;;;5.80;;
18716;SDS011;9487;50.892;6.906;2023-11-18T13:37:36;6.30;;;5.30;;
18716;SDS011;9487;50.892;6.906;2023-11-18T13:40:03;7.33;;;5.20;;
18716;SDS011;9487;50.892;6.906;2023-11-18T13:42:31;8.13;;;6.37;;
18716;SDS011;9487;50.892;6.906;2023-11-18T13:44:59;9.77;;;6.23;;
18716;SDS011;9487;50.892;6.906;2023-11-18T13:47:26;7.20;;;5.97;;
18716;SDS011;9487;50.892;6.906;2023-11-18T13:49:55;7.53;;;5.70;;
18716;SDS011;9487;50.892;6.906;2023-11-18T13:52:23;8.37;;;6.40;;
18716;SDS011;9487;50.892;6.906;2023-11-18T13:54:50;9.03;;;6.67;;
18716;SDS011;9487;50.892;6.906;2023-11-18T13:57:20;7.80;;;6.20;;
18716;SDS011;9487;50.892;6.906;2023-11-18T13:59:48;8.20;;;6.50;;
18716;SDS011;9487;50.892;6.906;2023-11-18T14:02:16;7.17;;;6.40;;
18716;SDS011;9487;50.892;6.906;2023-11-18T14:04:42;9.00;;;6.10;;
18716;SDS011;9487;50.892;6.906;2023-11-18T14:07:14;8.20;;;5.87;;
18716;SDS011;9487;50.892;6.906;2023-11-18T14:09:42;7.67;;;5.97;;
18716;SDS011;9487;50.892;6.906;2023-11-18T14:12:10;8.27;;;5.80;;
18716;SDS011;9487;50.892;6.906;2023-11-18T14:14:38;10.00;;;5.83;;
18716;SDS011;9487;50.892;6.906;2023-11-18T14:17:06;9.63;;;6.07;;
18716;SDS011;9487;50.892;6.906;2023-11-18T14:19:35;9.40;;;6.50;;
18716;SDS011;9487;50.892;6.906;2023-11-18T14:22:03;9.47;;;6.30;;
18716;SDS011;9487;50.892;6.906;2023-11-18T14:24:32;10.17;;;6.50;;
18716;SDS011;9487;50.892;6.906;2023-11-18T14:26:59;12.47;;;7.03;;
18716;SDS011;9487;50.892;6.906;2023-11-18T14:29:26;10.00;;;6.97;;
18716;SDS011;9487;50.892;6.906;2023-11-18T14:31:53;8.50;;;6.50;;
18716;SDS011;9487;50.892;6.906;2023-11-18T14:34:20;9.30;;;6.23;;
18716;SDS011;9487;50.892;6.906;2023-11-18T14:36:49;9.83;;;6.27;;
18716;SDS011;9487;50.892;6.906;2023-11-18T14:39:16;9.33;;;6.60;;
18716;SDS011;9487;50.892;6.906;2023-11-18T14:41:44;8.40;;;5.87;;
18716;SDS011;9487;50.892;6.906;2023-11-18T14:44:12;11.23;;;6.27;;
18716;SDS011;9487;50.892;6.906;2023-11-18T14:46:39;9.40;;;5.97;;
18716;SDS011;9487;50.892;6.906;2023-11-18T14:49:06;10.43;;;6.90;;
18716;SDS011;9487;50.892;6.906;2023-11-18T14:51:35;9.60;;;6.30;;
18716;SDS011;9487;50.892;6.906;2023-11-18T14:54:02;10.93;;;5.77;;
18716;SDS011;9487;50.892;6.906;2023-11-18T14:56:30;12.43;;;6.23;;